sensor_id;sensor_type;location;lat;lon;timestamp;P1;durP1;ratioP1;P2;durP2;ratioP2
55469;SDS011;41334;47.872;16.384;2023-05-23T00:03:57;6.72;;;3.40;;
55469;SDS011;41334;47.872;16.384;2023-05-23T00:08:59;5.13;;;3.55;;
55469;SDS011;41334;47.872;16.384;2023-05-23T00:14:01;6.28;;;3.33;;
55469;SDS011;41334;47.872;16.384;2023-05-23T00:19:03;10.13;;;4.15;;
55469;SDS011;41334;47.872;16.384;2023-05-23T00:24:05;5.90;;;3.70;;
55469;SDS011;41334;47.872;16.384;2023-05-23T00:29:07;5.90;;;3.50;;
55469;SDS011;41334;47.872;16.384;2023-05-23T00:34:16;6.72;;;3.30;;
55469;SDS011;41334;47.872;16.384;2023-05-23T00:39:18;5.15;;;3.42;;
55469;SDS011;41334;47.872;16.384;2023-05-23T00:44:21;7.88;;;3.50;;
55469;SDS011;41334;47.872;16.384;2023-05-23T00:49:24;6.63;;;3.30;;
55469;SDS011;41334;47.872;16.384;2023-05-23T00:54:28;7.03;;;3.55;;
55469;SDS011;41334;47.872;16.384;2023-05-23T00:59:33;5.60;;;3.67;;
55469;SDS011;41334;47.872;16.384;2023-05-23T01:04:37;5.63;;;3.17;;
55469;SDS011;41334;47.872;16.384;2023-05-23T01:09:39;5.85;;;3.78;;
55469;SDS011;41334;47.872;16.384;2023-05-23T01:15:04;5.55;;;3.78;;
55469;SDS011;41334;47.872;16.384;2023-05-23T01:20:17;7.25;;;3.38;;
55469;SDS011;41334;47.872;16.384;2023-05-23T01:30:47;12.40;;;3.70;;
55469;SDS011;41334;47.872;16.384;2023-05-23T01:35:55;5.93;;;3.30;;
55469;SDS011;41334;47.872;16.384;2023-05-23T01:41:00;10.23;;;3.90;;
55469;SDS011;41334;47.872;16.384;2023-05-23T01:46:01;7.32;;;4.00;;
55469;SDS011;41334;47.872;16.384;2023-05-23T01:51:06;6.25;;;4.18;;
55469;SDS011;41334;47.872;16.384;2023-05-23T01:56:08;5.60;;;3.83;;
55469;SDS011;41334;47.872;16.384;2023-05-23T02:01:11;7.30;;;4.32;;
55469;SDS011;41334;47.872;16.384;2023-05-23T02:06:13;10.10;;;3.97;;
55469;SDS011;41334;47.872;16.384;2023-05-23T02:11:15;8.52;;;3.63;;
55469;SDS011;41334;47.872;16.384;2023-05-23T02:16:17;7.15;;;3.67;;
55469;SDS011;41334;47.872;16.384;2023-05-23T02:21:19;5.85;;;3.10;;
55469;SDS011;41334;47.872;16.384;2023-05-23T02:26:21;4.93;;;3.38;;
55469;SDS011;41334;47.872;16.384;2023-05-23T02:31:23;8.50;;;3.75;;
55469;SDS011;41334;47.872;16.384;2023-05-23T02:36:25;9.68;;;4.13;;
55469;SDS011;41334;47.872;16.384;2023-05-23T02:41:28;5.45;;;3.40;;
55469;SDS011;41334;47.872;16.384;2023-05-23T02:46:30;11.90;;;3.72;;
55469;SDS011;41334;47.872;16.384;2023-05-23T02:51:34;9.75;;;3.85;;
55469;SDS011;41334;47.872;16.384;2023-05-23T02:56:36;5.22;;;3.63;;
55469;SDS011;41334;47.872;16.384;2023-05-23T03:01:38;6.63;;;3.55;;
55469;SDS011;41334;47.872;16.384;2023-05-23T03:06:40;5.88;;;3.35;;
55469;SDS011;41334;47.872;16.384;2023-05-23T03:11:42;9.95;;;3.65;;
55469;SDS011;41334;47.872;16.384;2023-05-23T03:16:45;7.03;;;3.88;;
55469;SDS011;41334;47.872;16.384;2023-05-23T03:21:47;7.13;;;4.03;;
55469;SDS011;41334;47.872;16.384;2023-05-23T03:26:51;5.65;;;3.88;;
55469;SDS011;41334;47.872;16.384;2023-05-23T03:31:53;8.27;;;4.45;;
55469;SDS011;41334;47.872;16.384;2023-05-23T03:36:55;7.78;;;4.40;;
55469;SDS011;41334;47.872;16.384;2023-05-23T03:41:57;9.10;;;4.45;;
55469;SDS011;41334;47.872;16.384;2023-05-23T03:46:59;7.07;;;4.35;;
55469;SDS011;41334;47.872;16.384;2023-05-23T03:52:01;6.40;;;3.92;;
55469;SDS011;41334;47.872;16.384;2023-05-23T03:57:03;6.38;;;4.00;;
55469;SDS011;41334;47.872;16.384;2023-05-23T04:02:04;6.00;;;3.95;;
55469;SDS011;41334;47.872;16.384;2023-05-23T04:07:07;8.93;;;3.90;;
55469;SDS011;41334;47.872;16.384;2023-05-23T04:12:12;8.63;;;4.55;;
55469;SDS011;41334;47.872;16.384;2023-05-23T04:17:14;6.70;;;4.75;;
55469;SDS011;41334;47.872;16.384;2023-05-23T04:22:16;6.63;;;4.75;;
55469;SDS011;41334;47.872;16.384;2023-05-23T04:27:20;7.47;;;4.57;;
55469;SDS011;41334;47.872;16.384;2023-05-23T04:32:23;7.47;;;4.53;;
55469;SDS011;41334;47.872;16.384;2023-05-23T04:37:27;8.88;;;4.75;;
55469;SDS011;41334;47.872;16.384;2023-05-23T04:42:29;7.30;;;4.60;;
55469;SDS011;41334;47.872;16.384;2023-05-23T04:47:51;6.38;;;4.20;;
55469;SDS011;41334;47.872;16.384;2023-05-23T04:53:15;7.63;;;4.78;;
55469;SDS011;41334;47.872;16.384;2023-05-23T04:58:18;5.57;;;3.72;;
55469;SDS011;41334;47.872;16.384;2023-05-23T05:03:20;7.40;;;4.50;;
55469;SDS011;41334;47.872;16.384;2023-05-23T05:08:25;7.47;;;4.20;;
55469;SDS011;41334;47.872;16.384;2023-05-23T05:13:28;9.65;;;4.72;;
55469;SDS011;41334;47.872;16.384;2023-05-23T05:18:31;10.18;;;4.88;;
55469;SDS011;41334;47.872;16.384;2023-05-23T05:23:34;14.15;;;4.80;;
55469;SDS011;41334;47.872;16.384;2023-05-23T05:28:36;9.63;;;5.43;;
55469;SDS011;41334;47.872;16.384;2023-05-23T05:33:38;11.88;;;5.80;;
55469;SDS011;41334;47.872;16.384;2023-05-23T05:38:45;10.40;;;4.90;;
55469;SDS011;41334;47.872;16.384;2023-05-23T05:43:47;10.82;;;5.03;;
55469;SDS011;41334;47.872;16.384;2023-05-23T05:48:49;8.93;;;5.38;;
55469;SDS011;41334;47.872;16.384;2023-05-23T05:53:52;7.47;;;4.70;;
55469;SDS011;41334;47.872;16.384;2023-05-23T05:58:54;7.43;;;5.47;;
55469;SDS011;41334;47.872;16.384;2023-05-23T06:03:57;9.55;;;4.97;;
55469;SDS011;41334;47.872;16.384;2023-05-23T06:09:00;15.07;;;5.57;;
55469;SDS011;41334;47.872;16.384;2023-05-23T06:14:03;7.38;;;5.25;;
55469;SDS011;41334;47.872;16.384;2023-05-23T06:19:05;8.75;;;5.28;;
55469;SDS011;41334;47.872;16.384;2023-05-23T06:24:08;5.30;;;4.20;;
55469;SDS011;41334;47.872;16.384;2023-05-23T06:29:10;11.00;;;4.80;;
55469;SDS011;41334;47.872;16.384;2023-05-23T06:34:12;7.18;;;4.97;;
55469;SDS011;41334;47.872;16.384;2023-05-23T06:39:14;9.68;;;5.85;;
55469;SDS011;41334;47.872;16.384;2023-05-23T06:44:16;11.30;;;5.60;;
55469;SDS011;41334;47.872;16.384;2023-05-23T06:49:18;7.50;;;4.68;;
55469;SDS011;41334;47.872;16.384;2023-05-23T06:54:20;7.80;;;5.40;;
55469;SDS011;41334;47.872;16.384;2023-05-23T06:59:23;9.13;;;4.88;;
55469;SDS011;41334;47.872;16.384;2023-05-23T07:04:25;11.45;;;5.88;;
55469;SDS011;41334;47.872;16.384;2023-05-23T07:09:31;10.50;;;6.10;;
55469;SDS011;41334;47.872;16.384;2023-05-23T07:14:41;7.18;;;4.90;;
55469;SDS011;41334;47.872;16.384;2023-05-23T07:19:44;8.45;;;5.35;;
55469;SDS011;41334;47.872;16.384;2023-05-23T07:24:50;9.23;;;5.30;;
55469;SDS011;41334;47.872;16.384;2023-05-23T07:29:54;6.78;;;4.78;;
55469;SDS011;41334;47.872;16.384;2023-05-23T07:34:58;7.22;;;4.47;;
55469;SDS011;41334;47.872;16.384;2023-05-23T07:40:00;10.15;;;5.93;;
55469;SDS011;41334;47.872;16.384;2023-05-23T07:45:02;6.90;;;4.68;;
55469;SDS011;41334;47.872;16.384;2023-05-23T07:50:05;5.45;;;4.18;;
55469;SDS011;41334;47.872;16.384;2023-05-23T07:55:07;7.18;;;4.22;;
55469;SDS011;41334;47.872;16.384;2023-05-23T08:00:10;10.20;;;4.78;;
55469;SDS011;41334;47.872;16.384;2023-05-23T08:05:15;6.38;;;4.85;;
55469;SDS011;41334;47.872;16.384;2023-05-23T08:10:22;7.07;;;4.63;;
55469;SDS011;41334;47.872;16.384;2023-05-23T08:15:26;7.28;;;4.20;;
55469;SDS011;41334;47.872;16.384;2023-05-23T08:20:39;8.35;;;5.03;;
55469;SDS011;41334;47.872;16.384;2023-05-23T08:25:43;8.90;;;4.57;;
55469;SDS011;41334;47.872;16.384;2023-05-23T08:30:45;7.97;;;4.47;;
55469;SDS011;41334;47.872;16.384;2023-05-23T08:35:48;6.28;;;3.88;;
55469;SDS011;41334;47.872;16.384;2023-05-23T08:40:52;10.30;;;4.32;;
55469;SDS011;41334;47.872;16.384;2023-05-23T08:45:59;6.95;;;3.35;;
55469;SDS011;41334;47.872;16.384;2023-05-23T08:51:04;7.07;;;3.83;;
55469;SDS011;41334;47.872;16.384;2023-05-23T08:56:09;5.43;;;3.67;;
55469;SDS011;41334;47.872;16.384;2023-05-23T09:01:16;5.65;;;3.88;;
55469;SDS011;41334;47.872;16.384;2023-05-23T09:06:24;6.00;;;3.75;;
55469;SDS011;41334;47.872;16.384;2023-05-23T09:11:27;5.47;;;3.45;;
55469;SDS011;41334;47.872;16.384;2023-05-23T09:16:31;6.60;;;3.60;;
55469;SDS011;41334;47.872;16.384;2023-05-23T09:21:43;7.07;;;3.95;;
55469;SDS011;41334;47.872;16.384;2023-05-23T09:26:51;5.90;;;3.47;;
55469;SDS011;41334;47.872;16.384;2023-05-23T09:31:58;7.82;;;3.90;;
55469;SDS011;41334;47.872;16.384;2023-05-23T09:37:11;11.05;;;4.00;;
55469;SDS011;41334;47.872;16.384;2023-05-23T09:42:21;7.30;;;4.38;;
55469;SDS011;41334;47.872;16.384;2023-05-23T09:47:23;6.03;;;4.55;;
55469;SDS011;41334;47.872;16.384;2023-05-23T09:52:26;9.40;;;4.40;;
55469;SDS011;41334;47.872;16.384;2023-05-23T09:57:34;8.50;;;4.30;;
55469;SDS011;41334;47.872;16.384;2023-05-23T10:08:35;6.78;;;4.25;;
55469;SDS011;41334;47.872;16.384;2023-05-23T10:13:42;8.38;;;4.15;;
55469;SDS011;41334;47.872;16.384;2023-05-23T10:18:47;5.15;;;4.30;;
55469;SDS011;41334;47.872;16.384;2023-05-23T10:23:57;8.60;;;3.88;;
55469;SDS011;41334;47.872;16.384;2023-05-23T10:29:00;6.90;;;3.88;;
55469;SDS011;41334;47.872;16.384;2023-05-23T10:39:34;8.23;;;4.35;;
55469;SDS011;41334;47.872;16.384;2023-05-23T10:44:40;7.10;;;4.05;;
55469;SDS011;41334;47.872;16.384;2023-05-23T10:49:43;9.27;;;4.35;;
55469;SDS011;41334;47.872;16.384;2023-05-23T10:54:52;5.15;;;4.50;;
55469;SDS011;41334;47.872;16.384;2023-05-23T10:59:55;10.18;;;5.00;;
55469;SDS011;41334;47.872;16.384;2023-05-23T11:15:54;7.72;;;4.80;;
55469;SDS011;41334;47.872;16.384;2023-05-23T11:20:56;8.50;;;4.72;;
55469;SDS011;41334;47.872;16.384;2023-05-23T11:26:01;6.22;;;3.97;;
55469;SDS011;41334;47.872;16.384;2023-05-23T11:31:03;6.47;;;4.53;;
55469;SDS011;41334;47.872;16.384;2023-05-23T11:36:05;5.70;;;4.15;;
55469;SDS011;41334;47.872;16.384;2023-05-23T11:41:10;7.68;;;4.72;;
55469;SDS011;41334;47.872;16.384;2023-05-23T11:46:12;9.63;;;4.38;;
55469;SDS011;41334;47.872;16.384;2023-05-23T11:51:14;11.23;;;4.85;;
55469;SDS011;41334;47.872;16.384;2023-05-23T11:56:16;6.55;;;4.28;;
55469;SDS011;41334;47.872;16.384;2023-05-23T12:01:18;10.48;;;4.07;;
55469;SDS011;41334;47.872;16.384;2023-05-23T12:06:20;5.68;;;3.72;;
55469;SDS011;41334;47.872;16.384;2023-05-23T12:11:23;5.50;;;3.95;;
55469;SDS011;41334;47.872;16.384;2023-05-23T12:16:29;6.93;;;3.92;;
55469;SDS011;41334;47.872;16.384;2023-05-23T12:21:41;7.65;;;4.55;;
55469;SDS011;41334;47.872;16.384;2023-05-23T12:26:46;5.00;;;4.50;;
55469;SDS011;41334;47.872;16.384;2023-05-23T12:31:52;11.00;;;4.55;;
55469;SDS011;41334;47.872;16.384;2023-05-23T12:36:55;6.72;;;4.65;;
55469;SDS011;41334;47.872;16.384;2023-05-23T12:42:18;6.05;;;4.50;;
55469;SDS011;41334;47.872;16.384;2023-05-23T12:47:20;7.35;;;4.88;;
55469;SDS011;41334;47.872;16.384;2023-05-23T12:52:22;5.68;;;4.72;;
55469;SDS011;41334;47.872;16.384;2023-05-23T12:57:24;5.95;;;4.88;;
55469;SDS011;41334;47.872;16.384;2023-05-23T13:02:26;5.38;;;3.65;;
55469;SDS011;41334;47.872;16.384;2023-05-23T13:07:28;6.97;;;3.72;;
55469;SDS011;41334;47.872;16.384;2023-05-23T13:12:30;5.20;;;3.42;;
55469;SDS011;41334;47.872;16.384;2023-05-23T13:17:33;6.28;;;2.85;;
55469;SDS011;41334;47.872;16.384;2023-05-23T13:22:35;6.50;;;3.83;;
55469;SDS011;41334;47.872;16.384;2023-05-23T13:27:37;4.25;;;3.45;;
55469;SDS011;41334;47.872;16.384;2023-05-23T13:32:39;5.28;;;3.70;;
55469;SDS011;41334;47.872;16.384;2023-05-23T13:37:41;5.15;;;3.55;;
55469;SDS011;41334;47.872;16.384;2023-05-23T13:42:43;7.90;;;3.45;;
55469;SDS011;41334;47.872;16.384;2023-05-23T13:47:46;4.32;;;3.00;;
55469;SDS011;41334;47.872;16.384;2023-05-23T13:52:48;5.45;;;3.00;;
55469;SDS011;41334;47.872;16.384;2023-05-23T13:57:50;5.18;;;3.05;;
55469;SDS011;41334;47.872;16.384;2023-05-23T14:02:52;5.50;;;3.10;;
55469;SDS011;41334;47.872;16.384;2023-05-23T14:07:53;6.07;;;3.10;;
55469;SDS011;41334;47.872;16.384;2023-05-23T14:12:55;7.80;;;2.85;;
55469;SDS011;41334;47.872;16.384;2023-05-23T14:17:57;8.45;;;2.83;;
55469;SDS011;41334;47.872;16.384;2023-05-23T14:22:59;4.45;;;2.72;;
55469;SDS011;41334;47.872;16.384;2023-05-23T14:28:01;7.53;;;3.03;;
55469;SDS011;41334;47.872;16.384;2023-05-23T14:33:04;4.88;;;3.38;;
55469;SDS011;41334;47.872;16.384;2023-05-23T14:38:07;4.47;;;2.60;;
55469;SDS011;41334;47.872;16.384;2023-05-23T14:43:09;5.82;;;3.35;;
55469;SDS011;41334;47.872;16.384;2023-05-23T14:48:12;5.03;;;3.30;;
55469;SDS011;41334;47.872;16.384;2023-05-23T14:53:13;11.15;;;3.88;;
55469;SDS011;41334;47.872;16.384;2023-05-23T14:58:16;13.27;;;4.57;;
55469;SDS011;41334;47.872;16.384;2023-05-23T15:03:18;7.07;;;3.08;;
55469;SDS011;41334;47.872;16.384;2023-05-23T15:08:31;4.97;;;3.38;;
55469;SDS011;41334;47.872;16.384;2023-05-23T15:13:37;12.45;;;4.15;;
55469;SDS011;41334;47.872;16.384;2023-05-23T15:18:42;6.15;;;3.08;;
55469;SDS011;41334;47.872;16.384;2023-05-23T15:24:43;4.72;;;3.30;;
55469;SDS011;41334;47.872;16.384;2023-05-23T15:29:45;11.05;;;2.83;;
55469;SDS011;41334;47.872;16.384;2023-05-23T15:35:46;4.95;;;2.83;;
55469;SDS011;41334;47.872;16.384;2023-05-23T15:41:46;7.07;;;3.05;;
55469;SDS011;41334;47.872;16.384;2023-05-23T15:47:47;4.32;;;3.22;;
55469;SDS011;41334;47.872;16.384;2023-05-23T15:53:47;6.25;;;3.15;;
55469;SDS011;41334;47.872;16.384;2023-05-23T15:59:47;10.02;;;4.05;;
55469;SDS011;41334;47.872;16.384;2023-05-23T16:05:48;5.47;;;3.53;;
55469;SDS011;41334;47.872;16.384;2023-05-23T16:11:48;5.03;;;3.42;;
55469;SDS011;41334;47.872;16.384;2023-05-23T16:17:48;4.95;;;3.13;;
55469;SDS011;41334;47.872;16.384;2023-05-23T16:23:49;4.93;;;3.55;;
55469;SDS011;41334;47.872;16.384;2023-05-23T16:29:49;8.40;;;3.33;;
55469;SDS011;41334;47.872;16.384;2023-05-23T16:35:50;6.28;;;3.47;;
55469;SDS011;41334;47.872;16.384;2023-05-23T16:41:51;6.05;;;3.38;;
55469;SDS011;41334;47.872;16.384;2023-05-23T16:47:51;5.28;;;3.55;;
55469;SDS011;41334;47.872;16.384;2023-05-23T16:53:51;10.85;;;4.10;;
55469;SDS011;41334;47.872;16.384;2023-05-23T17:00:00;9.07;;;3.75;;
55469;SDS011;41334;47.872;16.384;2023-05-23T17:06:03;5.93;;;3.40;;
55469;SDS011;41334;47.872;16.384;2023-05-23T17:12:04;6.10;;;3.47;;
55469;SDS011;41334;47.872;16.384;2023-05-23T17:18:06;6.88;;;3.50;;
55469;SDS011;41334;47.872;16.384;2023-05-23T17:24:06;4.90;;;2.95;;
55469;SDS011;41334;47.872;16.384;2023-05-23T17:30:08;7.00;;;3.35;;
55469;SDS011;41334;47.872;16.384;2023-05-23T17:36:09;12.30;;;3.50;;
55469;SDS011;41334;47.872;16.384;2023-05-23T17:48:13;5.28;;;3.67;;
55469;SDS011;41334;47.872;16.384;2023-05-23T17:54:14;5.38;;;3.75;;
55469;SDS011;41334;47.872;16.384;2023-05-23T18:00:14;9.32;;;3.72;;
55469;SDS011;41334;47.872;16.384;2023-05-23T18:06:18;7.30;;;3.50;;
55469;SDS011;41334;47.872;16.384;2023-05-23T18:12:21;8.10;;;3.63;;
55469;SDS011;41334;47.872;16.384;2023-05-23T18:18:21;5.50;;;3.67;;
55469;SDS011;41334;47.872;16.384;2023-05-23T18:24:22;6.35;;;3.20;;
55469;SDS011;41334;47.872;16.384;2023-05-23T18:30:27;5.10;;;3.38;;
55469;SDS011;41334;47.872;16.384;2023-05-23T18:36:31;5.55;;;3.08;;
55469;SDS011;41334;47.872;16.384;2023-05-23T18:42:31;7.30;;;3.45;;
55469;SDS011;41334;47.872;16.384;2023-05-23T18:48:34;7.38;;;3.55;;
55469;SDS011;41334;47.872;16.384;2023-05-23T18:54:35;5.25;;;3.38;;
55469;SDS011;41334;47.872;16.384;2023-05-23T19:00:40;5.57;;;3.72;;
55469;SDS011;41334;47.872;16.384;2023-05-23T19:06:41;5.93;;;3.97;;
55469;SDS011;41334;47.872;16.384;2023-05-23T19:12:41;7.90;;;4.20;;
55469;SDS011;41334;47.872;16.384;2023-05-23T19:18:41;7.20;;;4.07;;
55469;SDS011;41334;47.872;16.384;2023-05-23T19:24:42;6.13;;;3.60;;
55469;SDS011;41334;47.872;16.384;2023-05-23T19:30:43;10.25;;;4.10;;
55469;SDS011;41334;47.872;16.384;2023-05-23T19:36:43;8.20;;;4.40;;
55469;SDS011;41334;47.872;16.384;2023-05-23T19:42:43;7.40;;;4.07;;
55469;SDS011;41334;47.872;16.384;2023-05-23T19:48:44;5.47;;;3.15;;
55469;SDS011;41334;47.872;16.384;2023-05-23T19:54:44;7.53;;;4.43;;
55469;SDS011;41334;47.872;16.384;2023-05-23T20:00:44;7.50;;;4.10;;
55469;SDS011;41334;47.872;16.384;2023-05-23T20:06:45;7.88;;;3.45;;
55469;SDS011;41334;47.872;16.384;2023-05-23T20:12:45;5.50;;;3.30;;
55469;SDS011;41334;47.872;16.384;2023-05-23T20:18:45;5.93;;;3.25;;
55469;SDS011;41334;47.872;16.384;2023-05-23T20:24:47;7.95;;;3.78;;
55469;SDS011;41334;47.872;16.384;2023-05-23T20:30:48;6.90;;;3.00;;
55469;SDS011;41334;47.872;16.384;2023-05-23T20:36:49;9.27;;;3.55;;
55469;SDS011;41334;47.872;16.384;2023-05-23T20:42:52;6.70;;;2.65;;
55469;SDS011;41334;47.872;16.384;2023-05-23T20:48:52;8.00;;;2.67;;
55469;SDS011;41334;47.872;16.384;2023-05-23T20:55:00;6.55;;;3.10;;
55469;SDS011;41334;47.872;16.384;2023-05-23T21:01:07;5.43;;;2.78;;
55469;SDS011;41334;47.872;16.384;2023-05-23T21:07:10;7.07;;;3.13;;
55469;SDS011;41334;47.872;16.384;2023-05-23T21:13:11;4.75;;;2.80;;
55469;SDS011;41334;47.872;16.384;2023-05-23T21:24:32;4.72;;;3.20;;
55469;SDS011;41334;47.872;16.384;2023-05-23T21:30:33;4.78;;;2.72;;
55469;SDS011;41334;47.872;16.384;2023-05-23T21:36:42;4.05;;;2.72;;
55469;SDS011;41334;47.872;16.384;2023-05-23T21:42:42;6.13;;;3.28;;
55469;SDS011;41334;47.872;16.384;2023-05-23T21:48:43;5.50;;;3.10;;
55469;SDS011;41334;47.872;16.384;2023-05-23T21:54:43;5.93;;;2.85;;
55469;SDS011;41334;47.872;16.384;2023-05-23T22:00:44;4.55;;;2.03;;
55469;SDS011;41334;47.872;16.384;2023-05-23T22:06:44;4.22;;;1.90;;
55469;SDS011;41334;47.872;16.384;2023-05-23T22:12:45;2.88;;;1.70;;
55469;SDS011;41334;47.872;16.384;2023-05-23T22:18:45;4.35;;;2.22;;
55469;SDS011;41334;47.872;16.384;2023-05-23T22:24:48;3.85;;;1.88;;
55469;SDS011;41334;47.872;16.384;2023-05-23T22:30:49;3.10;;;1.88;;
55469;SDS011;41334;47.872;16.384;2023-05-23T22:36:49;4.05;;;2.33;;
55469;SDS011;41334;47.872;16.384;2023-05-23T22:42:50;4.20;;;2.33;;
55469;SDS011;41334;47.872;16.384;2023-05-23T22:48:51;4.30;;;2.03;;
55469;SDS011;41334;47.872;16.384;2023-05-23T22:54:56;4.75;;;2.47;;
55469;SDS011;41334;47.872;16.384;2023-05-23T23:00:57;9.23;;;2.25;;
55469;SDS011;41334;47.872;16.384;2023-05-23T23:06:09;3.92;;;2.47;;
55469;SDS011;41334;47.872;16.384;2023-05-23T23:11:11;3.75;;;2.25;;
55469;SDS011;41334;47.872;16.384;2023-05-23T23:16:12;4.10;;;2.38;;
55469;SDS011;41334;47.872;16.384;2023-05-23T23:21:14;3.33;;;2.00;;
55469;SDS011;41334;47.872;16.384;2023-05-23T23:26:16;3.63;;;2.17;;
55469;SDS011;41334;47.872;16.384;2023-05-23T23:31:18;2.50;;;1.27;;
55469;SDS011;41334;47.872;16.384;2023-05-23T23:36:20;2.55;;;1.27;;
55469;SDS011;41334;47.872;16.384;2023-05-23T23:41:22;3.97;;;2.20;;
55469;SDS011;41334;47.872;16.384;2023-05-23T23:46:23;0.88;;;0.55;;
55469;SDS011;41334;47.872;16.384;2023-05-23T23:51:25;5.43;;;1.63;;
55469;SDS011;41334;47.872;16.384;2023-05-23T23:56:27;6.97;;;2.10;;
